PWSweather.com
Personal Weather Stations
Station Observations
DW1039
Liberty & Fairfield Townships, Hamilton, OH 45011

Liberty & Fairfield TownshipsHamilton, OH 45011

Lat: 39.3933, Lon: -84.477

Elevation: 780

Station Type: Davis Vantage Pro2 (Daytime Fan Aspirated)

http://www.lfweathercenter.com/

High Low Average
Temperature 45.5°F7.5°C 25.4°F-3.7°C 40.8°F4.9°C
Dew Point 42.5°F5.8°C 22.1°F-5.5°C 38.7°F3.7°C
Winds 16.0 mph 25.7 kmh Calm Calm 6.0 mph WSW9.7 kmh WSW
Wind Gusts 30.0 mph48.3 kmh 5.0 mph8.0 kmh 13.0 mph20.9 kmh
Humidity 95% 87% 92%
Pressure 29.58 in1001.7 mb 29.41 in995.9 mb -
Precipitation 0.00 in0.0 mm - -
Hour Temp Dew Point Humidity Winds Wind Gusts Pressure Precip Precip Rate Daily Precip Total
12:01 AM 44.1°F6.7°C 42.5°F5.8°C 94% 2.0 mph SW3.2 kmh SW 13.0 mph20.9 kmh 29.46 in997.6 mb 0.00 in0.0 mm 0.00 in/hr0.0 mm/hr 0.00 in0.0 mm
12:10 AM 43.9°F6.6°C 42.3°F5.7°C 94% 2.0 mph SW3.2 kmh SW 10.0 mph16.1 kmh 29.46 in997.6 mb 0.00 in0.0 mm 0.00 in/hr0.0 mm/hr 0.00 in0.0 mm
12:30 AM 43.8°F6.6°C 42.2°F5.7°C 94% 1.0 mph SW1.6 kmh SW 7.0 mph11.3 kmh 29.46 in997.6 mb 0.00 in0.0 mm 0.00 in/hr0.0 mm/hr 0.00 in0.0 mm
12:40 AM 43.8°F6.6°C 42.2°F5.7°C 94% Calm Calm 10.0 mph16.1 kmh 29.46 in997.6 mb 0.00 in0.0 mm 0.00 in/hr0.0 mm/hr 0.00 in0.0 mm
12:50 AM 43.7°F6.5°C 42.1°F5.6°C 94% 2.0 mph SW3.2 kmh SW 11.0 mph17.7 kmh 29.46 in997.6 mb 0.01 in0.3 mm 0.06 in/hr1.5 mm/hr 0.01 in0.3 mm
01:00 AM 43.6°F6.4°C 42.0°F5.6°C 94% 3.0 mph SW4.8 kmh SW 6.0 mph9.7 kmh 29.46 in997.6 mb 0.01 in0.3 mm 0.00 in/hr0.0 mm/hr 0.01 in0.3 mm
01:10 AM 43.6°F6.4°C 42.0°F5.6°C 94% 4.0 mph SW6.4 kmh SW 6.0 mph9.7 kmh 29.46 in997.6 mb 0.01 in0.3 mm 0.00 in/hr0.0 mm/hr 0.01 in0.3 mm
01:20 AM 43.5°F6.4°C 41.9°F5.5°C 94% 6.0 mph SW9.7 kmh SW 11.0 mph17.7 kmh 29.46 in997.6 mb 0.01 in0.3 mm 0.00 in/hr0.0 mm/hr 0.01 in0.3 mm
01:30 AM 43.5°F6.4°C 41.9°F5.5°C 94% 8.0 mph SSW12.9 kmh SSW 10.0 mph16.1 kmh 29.46 in997.6 mb 0.01 in0.3 mm 0.00 in/hr0.0 mm/hr 0.01 in0.3 mm
01:40 AM 43.4°F6.3°C 41.8°F5.4°C 94% 9.0 mph SW14.5 kmh SW 12.0 mph19.3 kmh 29.46 in997.6 mb 0.01 in0.3 mm 0.00 in/hr0.0 mm/hr 0.01 in0.3 mm
01:50 AM 43.3°F6.3°C 41.7°F5.4°C 94% 10.0 mph SSW16.1 kmh SSW 12.0 mph19.3 kmh 29.47 in998.0 mb 0.01 in0.3 mm 0.00 in/hr0.0 mm/hr 0.01 in0.3 mm
02:00 AM 43.3°F6.3°C 42.0°F5.6°C 95% 4.0 mph SW6.4 kmh SW 10.0 mph16.1 kmh 29.47 in998.0 mb 0.00 in0.0 mm 0.00 in/hr0.0 mm/hr 0.01 in0.3 mm
02:10 AM 43.2°F6.2°C 41.9°F5.5°C 95% 6.0 mph WSW9.7 kmh WSW 12.0 mph19.3 kmh 29.47 in998.0 mb 0.00 in0.0 mm 0.00 in/hr0.0 mm/hr 0.01 in0.3 mm
02:20 AM 42.9°F6.1°C 41.3°F5.2°C 94% 5.0 mph WSW8.0 kmh WSW 17.0 mph27.4 kmh 29.47 in998.0 mb 0.01 in0.3 mm 0.06 in/hr1.5 mm/hr 0.02 in0.5 mm
02:30 AM 42.6°F5.9°C 41.0°F5.0°C 94% 12.0 mph SW19.3 kmh SW 16.0 mph25.7 kmh 29.47 in998.0 mb 0.01 in0.3 mm 0.00 in/hr0.0 mm/hr 0.02 in0.5 mm
02:40 AM 42.4°F5.8°C 40.8°F4.9°C 94% 6.0 mph WSW9.7 kmh WSW 18.0 mph29.0 kmh 29.48 in998.3 mb 0.01 in0.3 mm 0.00 in/hr0.0 mm/hr 0.02 in0.5 mm
02:50 AM 42.3°F5.7°C 40.7°F4.8°C 94% 7.0 mph WSW11.3 kmh WSW 16.0 mph25.7 kmh 29.48 in998.3 mb 0.01 in0.3 mm 0.00 in/hr0.0 mm/hr 0.02 in0.5 mm
03:00 AM 42.1°F5.6°C 40.5°F4.7°C 94% 4.0 mph WSW6.4 kmh WSW 13.0 mph20.9 kmh 29.48 in998.3 mb 0.01 in0.3 mm 0.00 in/hr0.0 mm/hr 0.02 in0.5 mm
03:10 AM 42.0°F5.6°C 40.4°F4.7°C 94% 11.0 mph SW17.7 kmh SW 14.0 mph22.5 kmh 29.49 in998.6 mb 0.01 in0.3 mm 0.00 in/hr0.0 mm/hr 0.02 in0.5 mm
03:30 AM 41.7°F5.4°C 40.1°F4.5°C 94% 7.0 mph SW11.3 kmh SW 11.0 mph17.7 kmh 29.49 in998.6 mb 0.00 in0.0 mm 0.00 in/hr0.0 mm/hr 0.02 in0.5 mm
03:40 AM 41.6°F5.3°C 40.0°F4.4°C 94% 9.0 mph WSW14.5 kmh WSW 15.0 mph24.1 kmh 29.49 in998.6 mb 0.00 in0.0 mm 0.00 in/hr0.0 mm/hr 0.02 in0.5 mm
03:50 AM 41.4°F5.2°C 39.8°F4.3°C 94% 6.0 mph WSW9.7 kmh WSW 16.0 mph25.7 kmh 29.49 in998.6 mb 0.00 in0.0 mm 0.00 in/hr0.0 mm/hr 0.02 in0.5 mm
04:00 AM 41.2°F5.1°C 39.6°F4.2°C 94% 5.0 mph WSW8.0 kmh WSW 17.0 mph27.4 kmh 29.49 in998.6 mb 0.00 in0.0 mm 0.00 in/hr0.0 mm/hr 0.02 in0.5 mm
04:10 AM 41.1°F5.1°C 39.5°F4.2°C 94% 4.0 mph WSW6.4 kmh WSW 13.0 mph20.9 kmh 29.49 in998.6 mb 0.00 in0.0 mm 0.00 in/hr0.0 mm/hr 0.02 in0.5 mm
04:20 AM 41.1°F5.1°C 39.5°F4.2°C 94% 8.0 mph WSW12.9 kmh WSW 18.0 mph29.0 kmh 29.49 in998.6 mb 0.00 in0.0 mm 0.00 in/hr0.0 mm/hr 0.02 in0.5 mm
04:30 AM 41.1°F5.1°C 39.5°F4.2°C 94% 9.0 mph WSW14.5 kmh WSW 14.0 mph22.5 kmh 29.50 in999.0 mb 0.00 in0.0 mm 0.00 in/hr0.0 mm/hr 0.02 in0.5 mm
04:40 AM 41.1°F5.1°C 39.5°F4.2°C 94% 7.0 mph W11.3 kmh W 13.0 mph20.9 kmh 29.50 in999.0 mb 0.00 in0.0 mm 0.00 in/hr0.0 mm/hr 0.02 in0.5 mm
04:50 AM 41.1°F5.1°C 39.5°F4.2°C 94% 5.0 mph WSW8.0 kmh WSW 13.0 mph20.9 kmh 29.50 in999.0 mb 0.00 in0.0 mm 0.00 in/hr0.0 mm/hr 0.02 in0.5 mm
05:00 AM 41.1°F5.1°C 39.5°F4.2°C 94% 4.0 mph SW6.4 kmh SW 12.0 mph19.3 kmh 29.50 in999.0 mb 0.00 in0.0 mm 0.00 in/hr0.0 mm/hr 0.02 in0.5 mm
05:10 AM 41.1°F5.1°C 39.5°F4.2°C 94% 6.0 mph WSW9.7 kmh WSW 11.0 mph17.7 kmh 29.50 in999.0 mb 0.00 in0.0 mm 0.00 in/hr0.0 mm/hr 0.02 in0.5 mm
05:20 AM 41.1°F5.1°C 39.5°F4.2°C 94% 6.0 mph W9.7 kmh W 14.0 mph22.5 kmh 29.50 in999.0 mb 0.00 in0.0 mm 0.00 in/hr0.0 mm/hr 0.02 in0.5 mm
05:30 AM 41.1°F5.1°C 39.5°F4.2°C 94% 5.0 mph W8.0 kmh W 7.0 mph11.3 kmh 29.50 in999.0 mb 0.00 in0.0 mm 0.00 in/hr0.0 mm/hr 0.02 in0.5 mm
05:40 AM 41.1°F5.1°C 39.5°F4.2°C 94% 3.0 mph WSW4.8 kmh WSW 12.0 mph19.3 kmh 29.50 in999.0 mb 0.00 in0.0 mm 0.00 in/hr0.0 mm/hr 0.02 in0.5 mm
05:50 AM 41.1°F5.1°C 39.5°F4.2°C 94% Calm Calm 12.0 mph19.3 kmh 29.51 in999.3 mb 0.00 in0.0 mm 0.00 in/hr0.0 mm/hr 0.02 in0.5 mm
06:00 AM 41.1°F5.1°C 39.5°F4.2°C 94% 5.0 mph SW8.0 kmh SW 13.0 mph20.9 kmh 29.51 in999.3 mb 0.00 in0.0 mm 0.00 in/hr0.0 mm/hr 0.02 in0.5 mm
06:10 AM 41.2°F5.1°C 39.6°F4.2°C 94% 3.0 mph SW4.8 kmh SW 11.0 mph17.7 kmh 29.51 in999.3 mb 0.00 in0.0 mm 0.00 in/hr0.0 mm/hr 0.02 in0.5 mm
06:20 AM 41.2°F5.1°C 39.6°F4.2°C 94% 6.0 mph WSW9.7 kmh WSW 12.0 mph19.3 kmh 29.52 in999.7 mb 0.00 in0.0 mm 0.00 in/hr0.0 mm/hr 0.02 in0.5 mm
06:30 AM 41.2°F5.1°C 39.6°F4.2°C 94% 6.0 mph W9.7 kmh W 13.0 mph20.9 kmh 29.52 in999.7 mb 0.00 in0.0 mm 0.00 in/hr0.0 mm/hr 0.02 in0.5 mm
06:40 AM 41.4°F5.2°C 40.1°F4.5°C 95% 7.0 mph W11.3 kmh W 11.0 mph17.7 kmh 29.52 in999.7 mb 0.00 in0.0 mm 0.00 in/hr0.0 mm/hr 0.02 in0.5 mm
06:50 AM 41.4°F5.2°C 40.1°F4.5°C 95% 3.0 mph SW4.8 kmh SW 12.0 mph19.3 kmh 29.52 in999.7 mb 0.00 in0.0 mm 0.00 in/hr0.0 mm/hr 0.02 in0.5 mm
07:00 AM 41.5°F5.3°C 40.2°F4.6°C 95% 3.0 mph WSW4.8 kmh WSW 7.0 mph11.3 kmh 29.52 in999.7 mb 0.00 in0.0 mm 0.00 in/hr0.0 mm/hr 0.02 in0.5 mm
07:10 AM 41.6°F5.3°C 40.3°F4.6°C 95% 2.0 mph WSW3.2 kmh WSW 7.0 mph11.3 kmh 29.52 in999.7 mb 0.00 in0.0 mm 0.00 in/hr0.0 mm/hr 0.02 in0.5 mm
07:20 AM 41.6°F5.3°C 40.3°F4.6°C 95% 3.0 mph SW4.8 kmh SW 12.0 mph19.3 kmh 29.51 in999.3 mb 0.00 in0.0 mm 0.00 in/hr0.0 mm/hr 0.02 in0.5 mm
07:30 AM 41.7°F5.4°C 40.1°F4.5°C 94% 7.0 mph SW11.3 kmh SW 7.0 mph11.3 kmh 29.51 in999.3 mb 0.00 in0.0 mm 0.00 in/hr0.0 mm/hr 0.02 in0.5 mm
07:40 AM 41.8°F5.4°C 40.2°F4.6°C 94% 4.0 mph SW6.4 kmh SW 7.0 mph11.3 kmh 29.52 in999.7 mb 0.00 in0.0 mm 0.00 in/hr0.0 mm/hr 0.02 in0.5 mm
07:50 AM 41.8°F5.4°C 40.2°F4.6°C 94% 2.0 mph WSW3.2 kmh WSW 7.0 mph11.3 kmh 29.51 in999.3 mb 0.00 in0.0 mm 0.00 in/hr0.0 mm/hr 0.02 in0.5 mm
08:00 AM 41.8°F5.4°C 40.2°F4.6°C 94% 3.0 mph WSW4.8 kmh WSW 6.0 mph9.7 kmh 29.51 in999.3 mb 0.00 in0.0 mm 0.00 in/hr0.0 mm/hr 0.02 in0.5 mm
08:10 AM 41.8°F5.4°C 40.2°F4.6°C 94% 1.0 mph WSW1.6 kmh WSW 5.0 mph8.0 kmh 29.51 in999.3 mb 0.00 in0.0 mm 0.00 in/hr0.0 mm/hr 0.02 in0.5 mm
08:20 AM 41.9°F5.5°C 40.3°F4.6°C 94% 2.0 mph WSW3.2 kmh WSW 7.0 mph11.3 kmh 29.52 in999.7 mb 0.00 in0.0 mm 0.00 in/hr0.0 mm/hr 0.02 in0.5 mm
08:30 AM 42.0°F5.6°C 40.4°F4.7°C 94% Calm Calm 6.0 mph9.7 kmh 29.52 in999.7 mb 0.00 in0.0 mm 0.00 in/hr0.0 mm/hr 0.02 in0.5 mm
08:40 AM 42.2°F5.7°C 40.6°F4.8°C 94% Calm Calm 6.0 mph9.7 kmh 29.51 in999.3 mb 0.00 in0.0 mm 0.00 in/hr0.0 mm/hr 0.02 in0.5 mm
08:50 AM 42.2°F5.7°C 40.6°F4.8°C 94% 2.0 mph SW3.2 kmh SW 7.0 mph11.3 kmh 29.52 in999.7 mb 0.00 in0.0 mm 0.00 in/hr0.0 mm/hr 0.02 in0.5 mm
09:00 AM 42.3°F5.7°C 40.4°F4.7°C 93% 3.0 mph SW4.8 kmh SW 8.0 mph12.9 kmh 29.52 in999.7 mb 0.00 in0.0 mm 0.00 in/hr0.0 mm/hr 0.02 in0.5 mm
09:10 AM 42.4°F5.8°C 40.5°F4.7°C 93% 4.0 mph SW6.4 kmh SW 12.0 mph19.3 kmh 29.52 in999.7 mb 0.00 in0.0 mm 0.00 in/hr0.0 mm/hr 0.02 in0.5 mm
09:20 AM 42.6°F5.9°C 40.7°F4.8°C 93% 4.0 mph SW6.4 kmh SW 7.0 mph11.3 kmh 29.52 in999.7 mb 0.00 in0.0 mm 0.00 in/hr0.0 mm/hr 0.02 in0.5 mm
09:30 AM 42.8°F6.0°C 40.9°F4.9°C 93% 7.0 mph SW11.3 kmh SW 9.0 mph14.5 kmh 29.52 in999.7 mb 0.00 in0.0 mm 0.00 in/hr0.0 mm/hr 0.02 in0.5 mm
09:40 AM 43.0°F6.1°C 41.1°F5.1°C 93% 9.0 mph SW14.5 kmh SW 11.0 mph17.7 kmh 29.52 in999.7 mb 0.00 in0.0 mm 0.00 in/hr0.0 mm/hr 0.02 in0.5 mm
09:50 AM 43.2°F6.2°C 41.3°F5.2°C 93% 4.0 mph WSW6.4 kmh WSW 10.0 mph16.1 kmh 29.52 in999.7 mb 0.00 in0.0 mm 0.00 in/hr0.0 mm/hr 0.02 in0.5 mm
10:00 AM 43.5°F6.4°C 41.3°F5.2°C 92% 3.0 mph SW4.8 kmh SW 10.0 mph16.1 kmh 29.52 in999.7 mb 0.00 in0.0 mm 0.00 in/hr0.0 mm/hr 0.02 in0.5 mm
10:10 AM 43.7°F6.5°C 41.5°F5.3°C 92% 4.0 mph SW6.4 kmh SW 11.0 mph17.7 kmh 29.52 in999.7 mb 0.00 in0.0 mm 0.00 in/hr0.0 mm/hr 0.02 in0.5 mm
10:20 AM 44.0°F6.7°C 41.6°F5.3°C 91% 11.0 mph WSW17.7 kmh WSW 12.0 mph19.3 kmh 29.52 in999.7 mb 0.00 in0.0 mm 0.00 in/hr0.0 mm/hr 0.02 in0.5 mm
10:30 AM 44.1°F6.7°C 41.7°F5.4°C 91% 10.0 mph SSW16.1 kmh SSW 16.0 mph25.7 kmh 29.52 in999.7 mb 0.00 in0.0 mm 0.00 in/hr0.0 mm/hr 0.02 in0.5 mm
10:40 AM 44.4°F6.9°C 41.7°F5.4°C 90% 6.0 mph SW9.7 kmh SW 14.0 mph22.5 kmh 29.51 in999.3 mb 0.00 in0.0 mm 0.00 in/hr0.0 mm/hr 0.02 in0.5 mm
10:50 AM 44.4°F6.9°C 41.7°F5.4°C 90% 10.0 mph WSW16.1 kmh WSW 15.0 mph24.1 kmh 29.51 in999.3 mb 0.00 in0.0 mm 0.00 in/hr0.0 mm/hr 0.02 in0.5 mm
11:00 AM 44.3°F6.8°C 41.6°F5.3°C 90% 10.0 mph SW16.1 kmh SW 16.0 mph25.7 kmh 29.51 in999.3 mb 0.00 in0.0 mm 0.00 in/hr0.0 mm/hr 0.02 in0.5 mm
11:10 AM 44.2°F6.8°C 41.5°F5.3°C 90% 4.0 mph SW6.4 kmh SW 11.0 mph17.7 kmh 29.50 in999.0 mb 0.00 in0.0 mm 0.00 in/hr0.0 mm/hr 0.02 in0.5 mm
11:20 AM 44.2°F6.8°C 41.5°F5.3°C 90% 12.0 mph SW19.3 kmh SW 13.0 mph20.9 kmh 29.50 in999.0 mb 0.00 in0.0 mm 0.00 in/hr0.0 mm/hr 0.02 in0.5 mm
11:30 AM 44.3°F6.8°C 41.6°F5.3°C 90% 11.0 mph SW17.7 kmh SW 15.0 mph24.1 kmh 29.50 in999.0 mb 0.00 in0.0 mm 0.00 in/hr0.0 mm/hr 0.02 in0.5 mm
11:40 AM 44.5°F6.9°C 41.8°F5.4°C 90% 6.0 mph SW9.7 kmh SW 13.0 mph20.9 kmh 29.49 in998.6 mb 0.00 in0.0 mm 0.00 in/hr0.0 mm/hr 0.02 in0.5 mm
11:50 AM 44.8°F7.1°C 41.8°F5.4°C 89% 4.0 mph SW6.4 kmh SW 15.0 mph24.1 kmh 29.48 in998.3 mb 0.00 in0.0 mm 0.00 in/hr0.0 mm/hr 0.02 in0.5 mm
12:00 PM 45.3°F7.4°C 42.0°F5.6°C 88% 8.0 mph SW12.9 kmh SW 14.0 mph22.5 kmh 29.48 in998.3 mb 0.00 in0.0 mm 0.00 in/hr0.0 mm/hr 0.02 in0.5 mm
12:10 PM 45.3°F7.4°C 41.7°F5.4°C 87% 4.0 mph SW6.4 kmh SW 16.0 mph25.7 kmh 29.47 in998.0 mb 0.00 in0.0 mm 0.00 in/hr0.0 mm/hr 0.02 in0.5 mm
12:20 PM 45.5°F7.5°C 41.9°F5.5°C 87% 9.0 mph SW14.5 kmh SW 13.0 mph20.9 kmh 29.46 in997.6 mb 0.00 in0.0 mm 0.00 in/hr0.0 mm/hr 0.02 in0.5 mm
12:30 PM 45.5°F7.5°C 42.2°F5.7°C 88% 3.0 mph SW4.8 kmh SW 11.0 mph17.7 kmh 29.45 in997.3 mb 0.00 in0.0 mm 0.00 in/hr0.0 mm/hr 0.02 in0.5 mm
12:40 PM 45.3°F7.4°C 42.0°F5.6°C 88% 2.0 mph SW3.2 kmh SW 10.0 mph16.1 kmh 29.45 in997.3 mb 0.00 in0.0 mm 0.00 in/hr0.0 mm/hr 0.02 in0.5 mm
12:50 PM 45.1°F7.3°C 42.1°F5.6°C 89% 8.0 mph SW12.9 kmh SW 11.0 mph17.7 kmh 29.44 in997.0 mb 0.00 in0.0 mm 0.00 in/hr0.0 mm/hr 0.02 in0.5 mm
01:00 PM 44.8°F7.1°C 41.5°F5.3°C 88% 3.0 mph SW4.8 kmh SW 9.0 mph14.5 kmh 29.43 in996.6 mb 0.00 in0.0 mm 0.00 in/hr0.0 mm/hr 0.02 in0.5 mm
01:10 PM 44.7°F7.1°C 41.7°F5.4°C 89% Calm Calm 11.0 mph17.7 kmh 29.43 in996.6 mb 0.00 in0.0 mm 0.00 in/hr0.0 mm/hr 0.02 in0.5 mm
01:20 PM 44.3°F6.8°C 41.6°F5.3°C 90% 1.0 mph SSW1.6 kmh SSW 6.0 mph9.7 kmh 29.42 in996.3 mb 0.02 in0.5 mm 0.12 in/hr3.0 mm/hr 0.04 in1.0 mm
01:30 PM 44.0°F6.7°C 41.6°F5.3°C 91% 4.0 mph WSW6.4 kmh WSW 8.0 mph12.9 kmh 29.42 in996.3 mb 0.04 in1.0 mm 0.12 in/hr3.0 mm/hr 0.06 in1.5 mm
01:40 PM 43.9°F6.6°C 41.5°F5.3°C 91% 2.0 mph WSW3.2 kmh WSW 10.0 mph16.1 kmh 29.41 in995.9 mb 0.05 in1.3 mm 0.06 in/hr1.5 mm/hr 0.07 in1.8 mm
01:50 PM 43.8°F6.6°C 41.4°F5.2°C 91% 5.0 mph WSW8.0 kmh WSW 7.0 mph11.3 kmh 29.41 in995.9 mb 0.05 in1.3 mm 0.00 in/hr0.0 mm/hr 0.07 in1.8 mm
02:01 PM 43.5°F6.4°C 41.1°F5.1°C 91% 8.0 mph WNW12.9 kmh WNW 15.0 mph24.1 kmh 29.41 in995.9 mb 0.06 in1.5 mm 0.01 in/hr0.3 mm/hr 0.08 in2.0 mm
02:20 PM 40.1°F4.5°C 38.0°F3.3°C 92% 9.0 mph W14.5 kmh W 19.0 mph30.6 kmh 29.43 in996.6 mb 0.07 in1.8 mm 0.03 in/hr0.8 mm/hr 0.09 in2.3 mm
02:30 PM 38.5°F3.6°C 36.1°F2.3°C 91% 11.0 mph WSW17.7 kmh WSW 28.0 mph45.1 kmh 29.44 in997.0 mb 0.06 in1.5 mm 0.00 in/hr0.0 mm/hr 0.09 in2.3 mm
02:40 PM 37.2°F2.9°C 34.8°F1.6°C 91% 14.0 mph W22.5 kmh W 23.0 mph37.0 kmh 29.45 in997.3 mb 0.06 in1.5 mm 0.00 in/hr0.0 mm/hr 0.09 in2.3 mm
02:50 PM 36.2°F2.3°C 33.8°F1.0°C 91% 13.0 mph W20.9 kmh W 30.0 mph48.3 kmh 29.46 in997.6 mb 0.07 in1.8 mm 0.06 in/hr1.5 mm/hr 0.10 in2.5 mm
03:00 PM 34.3°F1.3°C 32.0°F0.0°C 91% 14.0 mph W22.5 kmh W 24.0 mph38.6 kmh 29.47 in998.0 mb 0.06 in1.5 mm 0.00 in/hr0.0 mm/hr 0.10 in2.5 mm
03:10 PM 33.5°F0.8°C 31.4°F-0.3°C 92% 14.0 mph W22.5 kmh W 20.0 mph32.2 kmh 29.47 in998.0 mb 0.05 in1.3 mm 0.00 in/hr0.0 mm/hr 0.10 in2.5 mm
04:40 PM 31.2°F-0.4°C 28.9°F-1.7°C 91% 16.0 mph W25.7 kmh W 16.0 mph25.7 kmh 29.51 in999.3 mb 0.04 in1.0 mm 0.08 in/hr2.0 mm/hr 0.14 in3.6 mm
04:50 PM 31.0°F-0.6°C 28.4°F-2.0°C 90% 13.0 mph W20.9 kmh W 18.0 mph29.0 kmh 29.51 in999.3 mb 0.05 in1.3 mm 0.06 in/hr1.5 mm/hr 0.15 in3.8 mm
05:00 PM 30.6°F-0.8°C 28.0°F-2.2°C 90% 13.0 mph WSW20.9 kmh WSW 20.0 mph32.2 kmh 29.51 in999.3 mb 0.05 in1.3 mm 0.00 in/hr0.0 mm/hr 0.15 in3.8 mm
05:10 PM 30.2°F-1.0°C 27.6°F-2.4°C 90% 14.0 mph WSW22.5 kmh WSW 17.0 mph27.4 kmh 29.52 in999.7 mb 0.05 in1.3 mm 0.00 in/hr0.0 mm/hr 0.15 in3.8 mm
05:20 PM 29.6°F-1.3°C 27.0°F-2.8°C 90% 7.0 mph WSW11.3 kmh WSW 19.0 mph30.6 kmh 29.54 in1000.3 mb 0.05 in1.3 mm 0.00 in/hr0.0 mm/hr 0.15 in3.8 mm
05:30 PM 29.2°F-1.6°C 26.6°F-3.0°C 90% 6.0 mph WSW9.7 kmh WSW 20.0 mph32.2 kmh 29.54 in1000.3 mb 0.05 in1.3 mm 0.00 in/hr0.0 mm/hr 0.15 in3.8 mm
05:40 PM 28.8°F-1.8°C 26.2°F-3.2°C 90% 14.0 mph W22.5 kmh W 20.0 mph32.2 kmh 29.54 in1000.3 mb 0.01 in0.3 mm 0.00 in/hr0.0 mm/hr 0.15 in3.8 mm
05:50 PM 27.9°F-2.3°C 25.1°F-3.8°C 89% 6.0 mph WSW9.7 kmh WSW 25.0 mph40.2 kmh 29.55 in1000.7 mb 0.00 in0.0 mm 0.00 in/hr0.0 mm/hr 0.15 in3.8 mm
06:00 PM 27.5°F-2.5°C 24.7°F-4.1°C 89% 10.0 mph W16.1 kmh W 21.0 mph33.8 kmh 29.56 in1001.0 mb 0.00 in0.0 mm 0.00 in/hr0.0 mm/hr 0.15 in3.8 mm
06:10 PM 27.0°F-2.8°C 24.2°F-4.3°C 89% 10.0 mph WSW16.1 kmh WSW 20.0 mph32.2 kmh 29.56 in1001.0 mb 0.00 in0.0 mm 0.00 in/hr0.0 mm/hr 0.15 in3.8 mm
06:20 PM 26.3°F-3.2°C 23.2°F-4.9°C 88% 11.0 mph W17.7 kmh W 26.0 mph41.8 kmh 29.57 in1001.4 mb 0.00 in0.0 mm 0.00 in/hr0.0 mm/hr 0.15 in3.8 mm
06:30 PM 25.4°F-3.7°C 22.1°F-5.5°C 87% 16.0 mph W25.7 kmh W 25.0 mph40.2 kmh 29.58 in1001.7 mb 0.00 in0.0 mm 0.00 in/hr0.0 mm/hr 0.15 in3.8 mm
06:40 PM 25.0°F-3.9°C 21.4°F-5.9°C 86% 21.0 mph W33.8 kmh W 23.0 mph37.0 kmh 29.59 in1002.0 mb 0.00 in0.0 mm 0.00 in/hr0.0 mm/hr 0.15 in3.8 mm
06:50 PM 24.5°F-4.2°C 20.7°F-6.3°C 85% 11.0 mph WSW17.7 kmh WSW 25.0 mph40.2 kmh 29.60 in1002.4 mb 0.00 in0.0 mm 0.00 in/hr0.0 mm/hr 0.15 in3.8 mm
07:00 PM 24.1°F-4.4°C 20.3°F-6.5°C 85% 13.0 mph W20.9 kmh W 22.0 mph35.4 kmh 29.60 in1002.4 mb 0.00 in0.0 mm 0.00 in/hr0.0 mm/hr 0.15 in3.8 mm
07:10 PM 23.6°F-4.7°C 19.5°F-6.9°C 84% 27.0 mph WSW43.5 kmh WSW 33.0 mph53.1 kmh 29.61 in1002.7 mb 0.00 in0.0 mm 0.00 in/hr0.0 mm/hr 0.15 in3.8 mm
07:20 PM 23.1°F-4.9°C 18.7°F-7.4°C 83% 11.0 mph W17.7 kmh W 20.0 mph32.2 kmh 29.62 in1003.0 mb 0.00 in0.0 mm 0.00 in/hr0.0 mm/hr 0.15 in3.8 mm
07:30 PM 23.1°F-4.9°C 19.0°F-7.2°C 84% 15.0 mph WSW24.1 kmh WSW 18.0 mph29.0 kmh 29.63 in1003.4 mb 0.00 in0.0 mm 0.00 in/hr0.0 mm/hr 0.15 in3.8 mm
07:40 PM 22.8°F-5.1°C 18.4°F-7.6°C 83% 12.0 mph W19.3 kmh W 21.0 mph33.8 kmh 29.64 in1003.7 mb 0.00 in0.0 mm 0.00 in/hr0.0 mm/hr 0.15 in3.8 mm
07:50 PM 22.6°F-5.2°C 18.5°F-7.5°C 84% 12.0 mph WSW19.3 kmh WSW 25.0 mph40.2 kmh 29.64 in1003.7 mb 0.00 in0.0 mm 0.00 in/hr0.0 mm/hr 0.15 in3.8 mm
08:00 PM 21.9°F-5.6°C 18.6°F-7.4°C 87% 18.0 mph WSW29.0 kmh WSW 21.0 mph33.8 kmh 29.64 in1003.7 mb 0.00 in0.0 mm 0.00 in/hr0.0 mm/hr 0.15 in3.8 mm
08:10 PM 21.8°F-5.7°C 17.7°F-7.9°C 84% 14.0 mph W22.5 kmh W 22.0 mph35.4 kmh 29.64 in1003.7 mb 0.00 in0.0 mm 0.00 in/hr0.0 mm/hr 0.15 in3.8 mm
08:20 PM 21.7°F-5.7°C 17.1°F-8.3°C 82% 16.0 mph W25.7 kmh W 23.0 mph37.0 kmh 29.65 in1004.1 mb 0.00 in0.0 mm 0.00 in/hr0.0 mm/hr 0.15 in3.8 mm
08:30 PM 21.6°F-5.8°C 17.3°F-8.2°C 83% 5.0 mph WSW8.0 kmh WSW 19.0 mph30.6 kmh 29.66 in1004.4 mb 0.00 in0.0 mm 0.00 in/hr0.0 mm/hr 0.15 in3.8 mm
08:40 PM 21.3°F-5.9°C 17.0°F-8.3°C 83% 5.0 mph SW8.0 kmh SW 18.0 mph29.0 kmh 29.67 in1004.7 mb 0.00 in0.0 mm 0.00 in/hr0.0 mm/hr 0.15 in3.8 mm
08:50 PM 21.2°F-6.0°C 16.3°F-8.7°C 81% 10.0 mph WSW16.1 kmh WSW 21.0 mph33.8 kmh 29.67 in1004.7 mb 0.00 in0.0 mm 0.00 in/hr0.0 mm/hr 0.15 in3.8 mm
09:00 PM 21.1°F-6.1°C 15.6°F-9.1°C 79% 5.0 mph WSW8.0 kmh WSW 20.0 mph32.2 kmh 29.68 in1005.1 mb 0.00 in0.0 mm 0.00 in/hr0.0 mm/hr 0.15 in3.8 mm
09:10 PM 20.9°F-6.2°C 14.8°F-9.6°C 77% 5.0 mph SW8.0 kmh SW 21.0 mph33.8 kmh 29.68 in1005.1 mb 0.00 in0.0 mm 0.00 in/hr0.0 mm/hr 0.15 in3.8 mm
09:20 PM 20.6°F-6.3°C 15.1°F-9.4°C 79% 11.0 mph SW17.7 kmh SW 21.0 mph33.8 kmh 29.68 in1005.1 mb 0.00 in0.0 mm 0.00 in/hr0.0 mm/hr 0.15 in3.8 mm
09:30 PM 20.0°F-6.7°C 13.4°F-10.3°C 75% 13.0 mph SW20.9 kmh SW 30.0 mph48.3 kmh 29.69 in1005.4 mb 0.00 in0.0 mm 0.00 in/hr0.0 mm/hr 0.15 in3.8 mm
09:40 PM 19.7°F-6.8°C 13.4°F-10.3°C 76% 9.0 mph SW14.5 kmh SW 24.0 mph38.6 kmh 29.70 in1005.8 mb 0.00 in0.0 mm 0.00 in/hr0.0 mm/hr 0.15 in3.8 mm
09:50 PM 19.5°F-6.9°C 12.6°F-10.8°C 74% 14.0 mph W22.5 kmh W 22.0 mph35.4 kmh 29.70 in1005.8 mb 0.00 in0.0 mm 0.00 in/hr0.0 mm/hr 0.15 in3.8 mm
10:01 PM 19.6°F-6.9°C 13.0°F-10.6°C 75% 10.0 mph W16.1 kmh W 13.0 mph20.9 kmh 29.70 in1005.8 mb 0.00 in0.0 mm 0.00 in/hr0.0 mm/hr 0.15 in3.8 mm
10:10 PM 19.7°F-6.8°C 13.4°F-10.3°C 76% 5.0 mph WSW8.0 kmh WSW 15.0 mph24.1 kmh 29.71 in1006.1 mb 0.00 in0.0 mm 0.00 in/hr0.0 mm/hr 0.15 in3.8 mm
10:20 PM 19.8°F-6.8°C 13.5°F-10.3°C 76% 5.0 mph WSW8.0 kmh WSW 19.0 mph30.6 kmh 29.71 in1006.1 mb 0.00 in0.0 mm 0.00 in/hr0.0 mm/hr 0.15 in3.8 mm
10:30 PM 19.6°F-6.9°C 13.6°F-10.2°C 77% 5.0 mph W8.0 kmh W 21.0 mph33.8 kmh 29.71 in1006.1 mb 0.00 in0.0 mm 0.00 in/hr0.0 mm/hr 0.15 in3.8 mm
10:40 PM 19.3°F-7.1°C 14.2°F-9.9°C 80% 6.0 mph SW9.7 kmh SW 26.0 mph41.8 kmh 29.72 in1006.4 mb 0.00 in0.0 mm 0.00 in/hr0.0 mm/hr 0.15 in3.8 mm
10:50 PM 18.8°F-7.3°C 11.6°F-11.3°C 73% 19.0 mph W30.6 kmh W 26.0 mph41.8 kmh 29.72 in1006.4 mb 0.00 in0.0 mm 0.00 in/hr0.0 mm/hr 0.15 in3.8 mm
11:00 PM 18.5°F-7.5°C 11.0°F-11.7°C 72% 7.0 mph WSW11.3 kmh WSW 24.0 mph38.6 kmh 29.72 in1006.4 mb 0.00 in0.0 mm 0.00 in/hr0.0 mm/hr 0.15 in3.8 mm
11:10 PM 18.0°F-7.8°C 11.1°F-11.6°C 74% 19.0 mph WSW30.6 kmh WSW 29.0 mph46.7 kmh 29.72 in1006.4 mb 0.00 in0.0 mm 0.00 in/hr0.0 mm/hr 0.15 in3.8 mm
11:20 PM 17.9°F-7.8°C 11.3°F-11.5°C 75% 9.0 mph WSW14.5 kmh WSW 22.0 mph35.4 kmh 29.73 in1006.8 mb 0.00 in0.0 mm 0.00 in/hr0.0 mm/hr 0.15 in3.8 mm
11:30 PM 17.7°F-7.9°C 11.1°F-11.6°C 75% 13.0 mph W20.9 kmh W 25.0 mph40.2 kmh 29.73 in1006.8 mb 0.00 in0.0 mm 0.00 in/hr0.0 mm/hr 0.15 in3.8 mm
11:40 PM 17.3°F-8.2°C 11.6°F-11.3°C 78% 10.0 mph W16.1 kmh W 20.0 mph32.2 kmh 29.73 in1006.8 mb 0.00 in0.0 mm 0.00 in/hr0.0 mm/hr 0.15 in3.8 mm
11:50 PM 17.5°F-8.1°C 12.1°F-11.1°C 79% 17.0 mph W27.4 kmh W 21.0 mph33.8 kmh 29.74 in1007.1 mb 0.00 in0.0 mm 0.00 in/hr0.0 mm/hr 0.15 in3.8 mm